sensor_id;sensor_type;location;lat;lon;timestamp;P1;durP1;ratioP1;P2;durP2;ratioP2
60718;SDS011;46567;51.660;5.824;2022-10-03T00:00:12;9.5;;;3.2;;
60718;SDS011;46567;51.660;5.824;2022-10-03T00:04:10;8.4;;;3.1;;
60718;SDS011;46567;51.660;5.824;2022-10-03T00:09:44;11.7;;;3.5;;
60718;SDS011;46567;51.660;5.824;2022-10-03T00:14:50;8.9;;;3.2;;
60718;SDS011;46567;51.660;5.824;2022-10-03T00:19:42;10.7;;;3.5;;
60718;SDS011;46567;51.660;5.824;2022-10-03T00:24:53;11.9;;;3.4;;
60718;SDS011;46567;51.660;5.824;2022-10-03T00:30:15;10.9;;;2.9;;
60718;SDS011;46567;51.660;5.824;2022-10-03T00:39:36;10.9;;;3.2;;
60718;SDS011;46567;51.660;5.824;2022-10-03T00:47:09;8.4;;;3.5;;
60718;SDS011;46567;51.660;5.824;2022-10-03T00:53:19;12.9;;;3.7;;
60718;SDS011;46567;51.660;5.824;2022-10-03T00:59:11;9.2;;;3.6;;
60718;SDS011;46567;51.660;5.824;2022-10-03T01:01:50;9.6;;;3.4;;
60718;SDS011;46567;51.660;5.824;2022-10-03T01:09:44;11.4;;;3.6;;
60718;SDS011;46567;51.660;5.824;2022-10-03T01:15:09;10.7;;;3.1;;
60718;SDS011;46567;51.660;5.824;2022-10-03T01:20:53;8.9;;;3.5;;
60718;SDS011;46567;51.660;5.824;2022-10-03T01:26:51;10.5;;;3.3;;
60718;SDS011;46567;51.660;5.824;2022-10-03T01:30:05;10.3;;;3.7;;
60718;SDS011;46567;51.660;5.824;2022-10-03T01:33:09;9.7;;;3.6;;
60718;SDS011;46567;51.660;5.824;2022-10-03T01:38:08;9.5;;;3.7;;
60718;SDS011;46567;51.660;5.824;2022-10-03T01:43:43;9.3;;;3.9;;
60718;SDS011;46567;51.660;5.824;2022-10-03T01:48:11;11.8;;;4.0;;
60718;SDS011;46567;51.660;5.824;2022-10-03T01:53:34;11.3;;;4.0;;
60718;SDS011;46567;51.660;5.824;2022-10-03T01:58:06;8.7;;;4.1;;
60718;SDS011;46567;51.660;5.824;2022-10-03T02:03:19;7.3;;;3.8;;
60718;SDS011;46567;51.660;5.824;2022-10-03T02:08:22;8.3;;;3.7;;
60718;SDS011;46567;51.660;5.824;2022-10-03T02:13:16;10.7;;;3.4;;
60718;SDS011;46567;51.660;5.824;2022-10-03T02:18:11;10.9;;;3.9;;
60718;SDS011;46567;51.660;5.824;2022-10-03T02:23:03;10.2;;;3.7;;
60718;SDS011;46567;51.660;5.824;2022-10-03T02:30:15;9.2;;;3.5;;
60718;SDS011;46567;51.660;5.824;2022-10-03T02:37:48;9.5;;;3.7;;
60718;SDS011;46567;51.660;5.824;2022-10-03T02:46:05;11.2;;;4.3;;
60718;SDS011;46567;51.660;5.824;2022-10-03T02:54:40;12.8;;;3.6;;
60718;SDS011;46567;51.660;5.824;2022-10-03T03:01:50;9.4;;;4.1;;
60718;SDS011;46567;51.660;5.824;2022-10-03T03:08:59;9.7;;;4.6;;
60718;SDS011;46567;51.660;5.824;2022-10-03T03:16:29;7.4;;;3.7;;
60718;SDS011;46567;51.660;5.824;2022-10-03T03:21:25;11.3;;;4.1;;
60718;SDS011;46567;51.660;5.824;2022-10-03T03:27:33;9.9;;;3.4;;
60718;SDS011;46567;51.660;5.824;2022-10-03T03:32:16;9.7;;;3.7;;
60718;SDS011;46567;51.660;5.824;2022-10-03T03:37:37;8.3;;;3.8;;
60718;SDS011;46567;51.660;5.824;2022-10-03T03:43:52;9.2;;;3.6;;
60718;SDS011;46567;51.660;5.824;2022-10-03T03:49:40;7.1;;;3.5;;
60718;SDS011;46567;51.660;5.824;2022-10-03T03:56:42;9.6;;;3.6;;
60718;SDS011;46567;51.660;5.824;2022-10-03T04:01:56;9.3;;;4.1;;
60718;SDS011;46567;51.660;5.824;2022-10-03T04:07:52;9.0;;;3.8;;
60718;SDS011;46567;51.660;5.824;2022-10-03T04:13:40;9.8;;;3.9;;
60718;SDS011;46567;51.660;5.824;2022-10-03T04:19:22;7.9;;;4.0;;
60718;SDS011;46567;51.660;5.824;2022-10-03T04:25:31;7.1;;;4.0;;
60718;SDS011;46567;51.660;5.824;2022-10-03T04:31:30;8.9;;;4.4;;
60718;SDS011;46567;51.660;5.824;2022-10-03T04:37:31;9.1;;;4.0;;
60718;SDS011;46567;51.660;5.824;2022-10-03T04:47:21;9.3;;;4.2;;
60718;SDS011;46567;51.660;5.824;2022-10-03T04:51:53;6.9;;;3.9;;
60718;SDS011;46567;51.660;5.824;2022-10-03T04:56:58;9.7;;;3.5;;
60718;SDS011;46567;51.660;5.824;2022-10-03T05:01:16;10.5;;;4.2;;
60718;SDS011;46567;51.660;5.824;2022-10-03T05:06:25;7.0;;;3.6;;
60718;SDS011;46567;51.660;5.824;2022-10-03T05:15:55;11.0;;;4.0;;
60718;SDS011;46567;51.660;5.824;2022-10-03T05:20:48;8.3;;;3.8;;
60718;SDS011;46567;51.660;5.824;2022-10-03T05:30:18;12.6;;;4.0;;
60718;SDS011;46567;51.660;5.824;2022-10-03T05:35:36;8.2;;;4.0;;
60718;SDS011;46567;51.660;5.824;2022-10-03T05:40:40;11.5;;;4.2;;
60718;SDS011;46567;51.660;5.824;2022-10-03T05:50:23;7.6;;;3.9;;
60718;SDS011;46567;51.660;5.824;2022-10-03T05:56:08;8.8;;;3.6;;
60718;SDS011;46567;51.660;5.824;2022-10-03T06:03:26;8.2;;;3.8;;
60718;SDS011;46567;51.660;5.824;2022-10-03T06:08:20;9.8;;;4.3;;
60718;SDS011;46567;51.660;5.824;2022-10-03T06:14:16;10.3;;;4.5;;
60718;SDS011;46567;51.660;5.824;2022-10-03T06:19:12;7.8;;;3.4;;
60718;SDS011;46567;51.660;5.824;2022-10-03T06:28:15;6.5;;;3.4;;
60718;SDS011;46567;51.660;5.824;2022-10-03T06:35:53;6.8;;;3.9;;
60718;SDS011;46567;51.660;5.824;2022-10-03T06:44:16;12.0;;;4.0;;
60718;SDS011;46567;51.660;5.824;2022-10-03T06:50:03;7.8;;;3.9;;
60718;SDS011;46567;51.660;5.824;2022-10-03T06:57:21;8.1;;;4.1;;
60718;SDS011;46567;51.660;5.824;2022-10-03T07:03:19;7.2;;;3.9;;
60718;SDS011;46567;51.660;5.824;2022-10-03T07:11:41;10.3;;;5.2;;
60718;SDS011;46567;51.660;5.824;2022-10-03T07:19:12;7.9;;;4.5;;
60718;SDS011;46567;51.660;5.824;2022-10-03T07:26:51;9.5;;;4.6;;
60718;SDS011;46567;51.660;5.824;2022-10-03T07:31:46;11.5;;;5.2;;
60718;SDS011;46567;51.660;5.824;2022-10-03T07:39:15;10.0;;;5.0;;
60718;SDS011;46567;51.660;5.824;2022-10-03T07:46:14;9.6;;;5.5;;
60718;SDS011;46567;51.660;5.824;2022-10-03T07:53:08;12.1;;;6.4;;
60718;SDS011;46567;51.660;5.824;2022-10-03T07:59:18;10.1;;;5.4;;
60718;SDS011;46567;51.660;5.824;2022-10-03T08:06:17;10.2;;;5.6;;
60718;SDS011;46567;51.660;5.824;2022-10-03T08:12:06;12.6;;;6.5;;
60718;SDS011;46567;51.660;5.824;2022-10-03T08:18:53;9.5;;;5.8;;
60718;SDS011;46567;51.660;5.824;2022-10-03T08:23:21;10.4;;;5.4;;
60718;SDS011;46567;51.660;5.824;2022-10-03T08:29:57;9.2;;;5.8;;
60718;SDS011;46567;51.660;5.824;2022-10-03T08:36:10;13.3;;;6.3;;
60718;SDS011;46567;51.660;5.824;2022-10-03T08:44:41;9.2;;;5.8;;
60718;SDS011;46567;51.660;5.824;2022-10-03T08:50:06;10.0;;;6.1;;
60718;SDS011;46567;51.660;5.824;2022-10-03T08:55:27;10.8;;;5.4;;
60718;SDS011;46567;51.660;5.824;2022-10-03T09:07:37;10.3;;;6.2;;
60718;SDS011;46567;51.660;5.824;2022-10-03T09:15:41;9.3;;;5.4;;
60718;SDS011;46567;51.660;5.824;2022-10-03T09:21:56;9.6;;;5.6;;
60718;SDS011;46567;51.660;5.824;2022-10-03T09:29:11;8.8;;;5.6;;
60718;SDS011;46567;51.660;5.824;2022-10-03T09:36:01;8.0;;;5.2;;
60718;SDS011;46567;51.660;5.824;2022-10-03T09:43:49;10.6;;;5.0;;
60718;SDS011;46567;51.660;5.824;2022-10-03T09:50:53;9.7;;;4.6;;
60718;SDS011;46567;51.660;5.824;2022-10-03T09:57:38;10.4;;;4.9;;
60718;SDS011;46567;51.660;5.824;2022-10-03T10:04:39;10.1;;;4.5;;
60718;SDS011;46567;51.660;5.824;2022-10-03T10:11:16;8.6;;;4.2;;
60718;SDS011;46567;51.660;5.824;2022-10-03T10:19:33;11.4;;;4.5;;
60718;SDS011;46567;51.660;5.824;2022-10-03T10:27:18;8.4;;;4.7;;
60718;SDS011;46567;51.660;5.824;2022-10-03T10:38:03;8.0;;;4.4;;
60718;SDS011;46567;51.660;5.824;2022-10-03T10:50:26;14.8;;;4.8;;
60718;SDS011;46567;51.660;5.824;2022-10-03T11:01:27;9.4;;;4.0;;
60718;SDS011;46567;51.660;5.824;2022-10-03T11:26:44;10.5;;;3.7;;
60718;SDS011;46567;51.660;5.824;2022-10-03T11:37:38;11.1;;;4.0;;
60718;SDS011;46567;51.660;5.824;2022-10-03T11:41:58;6.8;;;2.6;;
60718;SDS011;46567;51.660;5.824;2022-10-03T11:46:40;9.6;;;3.9;;
60718;SDS011;46567;51.660;5.824;2022-10-03T11:51:06;6.8;;;2.9;;
60718;SDS011;46567;51.660;5.824;2022-10-03T11:55:26;7.2;;;2.8;;
60718;SDS011;46567;51.660;5.824;2022-10-03T11:59:46;10.3;;;3.1;;
60718;SDS011;46567;51.660;5.824;2022-10-03T12:03:43;8.2;;;2.7;;
60718;SDS011;46567;51.660;5.824;2022-10-03T12:07:52;8.6;;;3.5;;
60718;SDS011;46567;51.660;5.824;2022-10-03T12:12:58;7.6;;;2.2;;
60718;SDS011;46567;51.660;5.824;2022-10-03T12:15:58;8.5;;;2.8;;
60718;SDS011;46567;51.660;5.824;2022-10-03T12:20:31;7.5;;;2.4;;
60718;SDS011;46567;51.660;5.824;2022-10-03T12:24:41;6.7;;;2.0;;
60718;SDS011;46567;51.660;5.824;2022-10-03T12:27:37;5.1;;;2.1;;
60718;SDS011;46567;51.660;5.824;2022-10-03T12:30:18;4.1;;;1.9;;
60718;SDS011;46567;51.660;5.824;2022-10-03T12:34:12;6.5;;;2.1;;
60718;SDS011;46567;51.660;5.824;2022-10-03T12:39:24;8.1;;;2.2;;
60718;SDS011;46567;51.660;5.824;2022-10-03T12:44:26;6.8;;;1.9;;
60718;SDS011;46567;51.660;5.824;2022-10-03T12:49:02;5.6;;;1.8;;
60718;SDS011;46567;51.660;5.824;2022-10-03T12:54:30;5.5;;;2.1;;
60718;SDS011;46567;51.660;5.824;2022-10-03T12:58:52;5.5;;;1.8;;
60718;SDS011;46567;51.660;5.824;2022-10-03T13:03:38;3.8;;;1.8;;
60718;SDS011;46567;51.660;5.824;2022-10-03T13:08:10;4.4;;;1.9;;
60718;SDS011;46567;51.660;5.824;2022-10-03T13:13:27;9.0;;;2.3;;
60718;SDS011;46567;51.660;5.824;2022-10-03T13:18:47;5.0;;;1.9;;
60718;SDS011;46567;51.660;5.824;2022-10-03T13:22:43;5.8;;;2.1;;
60718;SDS011;46567;51.660;5.824;2022-10-03T13:26:44;6.5;;;2.0;;
60718;SDS011;46567;51.660;5.824;2022-10-03T13:30:24;8.1;;;2.1;;
60718;SDS011;46567;51.660;5.824;2022-10-03T13:33:51;7.3;;;2.0;;
60718;SDS011;46567;51.660;5.824;2022-10-03T13:38:16;4.8;;;1.7;;
60718;SDS011;46567;51.660;5.824;2022-10-03T13:41:22;9.4;;;2.2;;
60718;SDS011;46567;51.660;5.824;2022-10-03T13:43:54;4.5;;;1.5;;
60718;SDS011;46567;51.660;5.824;2022-10-03T13:45:53;5.8;;;1.4;;
60718;SDS011;46567;51.660;5.824;2022-10-03T13:48:31;4.5;;;1.7;;
60718;SDS011;46567;51.660;5.824;2022-10-03T13:51:26;4.4;;;1.7;;
60718;SDS011;46567;51.660;5.824;2022-10-03T13:55:54;4.2;;;1.7;;
60718;SDS011;46567;51.660;5.824;2022-10-03T14:00:09;5.3;;;1.7;;
60718;SDS011;46567;51.660;5.824;2022-10-03T14:05:06;10.4;;;2.2;;
60718;SDS011;46567;51.660;5.824;2022-10-03T14:10:03;6.7;;;1.5;;
60718;SDS011;46567;51.660;5.824;2022-10-03T14:15:30;5.8;;;1.5;;
60718;SDS011;46567;51.660;5.824;2022-10-03T14:20:14;4.6;;;1.3;;
60718;SDS011;46567;51.660;5.824;2022-10-03T14:25:29;6.4;;;1.2;;
60718;SDS011;46567;51.660;5.824;2022-10-03T14:29:28;5.5;;;1.5;;
60718;SDS011;46567;51.660;5.824;2022-10-03T14:33:22;6.2;;;1.5;;
60718;SDS011;46567;51.660;5.824;2022-10-03T14:37:50;4.3;;;1.2;;
60718;SDS011;46567;51.660;5.824;2022-10-03T14:42:50;6.0;;;1.4;;
60718;SDS011;46567;51.660;5.824;2022-10-03T14:45:58;3.7;;;1.2;;
60718;SDS011;46567;51.660;5.824;2022-10-03T14:47:18;6.5;;;1.2;;
60718;SDS011;46567;51.660;5.824;2022-10-03T14:49:05;4.4;;;1.1;;
60718;SDS011;46567;51.660;5.824;2022-10-03T14:50:42;3.7;;;1.2;;
60718;SDS011;46567;51.660;5.824;2022-10-03T14:53:30;2.9;;;1.1;;
60718;SDS011;46567;51.660;5.824;2022-10-03T14:54:52;5.7;;;1.4;;
60718;SDS011;46567;51.660;5.824;2022-10-03T14:56:45;4.8;;;1.4;;
60718;SDS011;46567;51.660;5.824;2022-10-03T14:59:34;3.0;;;1.3;;
60718;SDS011;46567;51.660;5.824;2022-10-03T14:59:56;3.9;;;1.2;;
60718;SDS011;46567;51.660;5.824;2022-10-03T15:01:30;4.2;;;1.1;;
60718;SDS011;46567;51.660;5.824;2022-10-03T15:02:37;5.3;;;1.4;;
60718;SDS011;46567;51.660;5.824;2022-10-03T15:02:50;4.0;;;1.1;;
60718;SDS011;46567;51.660;5.824;2022-10-03T15:02:56;5.4;;;1.4;;
60718;SDS011;46567;51.660;5.824;2022-10-03T15:04:41;2.8;;;1.0;;
60718;SDS011;46567;51.660;5.824;2022-10-03T15:06:57;7.2;;;1.1;;
60718;SDS011;46567;51.660;5.824;2022-10-03T15:07:52;3.6;;;1.1;;
60718;SDS011;46567;51.660;5.824;2022-10-03T15:09:31;7.5;;;1.4;;
60718;SDS011;46567;51.660;5.824;2022-10-03T15:10:27;4.7;;;1.3;;
60718;SDS011;46567;51.660;5.824;2022-10-03T15:10:57;5.7;;;1.2;;
60718;SDS011;46567;51.660;5.824;2022-10-03T15:13:18;4.8;;;1.4;;
60718;SDS011;46567;51.660;5.824;2022-10-03T15:14:53;5.2;;;1.1;;
60718;SDS011;46567;51.660;5.824;2022-10-03T15:16:28;5.7;;;1.2;;
60718;SDS011;46567;51.660;5.824;2022-10-03T15:18:30;4.7;;;1.4;;
60718;SDS011;46567;51.660;5.824;2022-10-03T15:20:31;5.8;;;1.1;;
60718;SDS011;46567;51.660;5.824;2022-10-03T15:21:30;3.7;;;1.0;;
60718;SDS011;46567;51.660;5.824;2022-10-03T15:23:44;7.2;;;1.4;;
60718;SDS011;46567;51.660;5.824;2022-10-03T15:25:33;4.3;;;1.0;;
60718;SDS011;46567;51.660;5.824;2022-10-03T15:27:27;8.6;;;1.5;;
60718;SDS011;46567;51.660;5.824;2022-10-03T15:29:24;2.5;;;1.1;;
60718;SDS011;46567;51.660;5.824;2022-10-03T15:33:15;4.5;;;1.1;;
60718;SDS011;46567;51.660;5.824;2022-10-03T15:38:05;4.7;;;1.6;;
60718;SDS011;46567;51.660;5.824;2022-10-03T15:43:05;6.4;;;1.6;;
60718;SDS011;46567;51.660;5.824;2022-10-03T15:48:03;7.3;;;1.4;;
60718;SDS011;46567;51.660;5.824;2022-10-03T15:53:05;9.5;;;1.4;;
60718;SDS011;46567;51.660;5.824;2022-10-03T15:58:13;6.1;;;2.2;;
60718;SDS011;46567;51.660;5.824;2022-10-03T16:03:09;5.2;;;2.3;;
60718;SDS011;46567;51.660;5.824;2022-10-03T16:08:20;4.9;;;1.9;;
60718;SDS011;46567;51.660;5.824;2022-10-03T16:13:34;5.4;;;1.8;;
60718;SDS011;46567;51.660;5.824;2022-10-03T16:18:03;6.8;;;1.9;;
60718;SDS011;46567;51.660;5.824;2022-10-03T16:23:04;4.4;;;1.6;;
60718;SDS011;46567;51.660;5.824;2022-10-03T16:28:03;4.7;;;1.6;;
60718;SDS011;46567;51.660;5.824;2022-10-03T16:33:04;5.6;;;2.1;;
60718;SDS011;46567;51.660;5.824;2022-10-03T16:38:04;7.0;;;2.3;;
60718;SDS011;46567;51.660;5.824;2022-10-03T16:43:03;3.9;;;2.1;;
60718;SDS011;46567;51.660;5.824;2022-10-03T16:48:08;5.4;;;2.1;;
60718;SDS011;46567;51.660;5.824;2022-10-03T16:53:02;5.5;;;2.1;;
60718;SDS011;46567;51.660;5.824;2022-10-03T16:58:04;6.3;;;1.9;;
60718;SDS011;46567;51.660;5.824;2022-10-03T17:03:03;8.6;;;4.6;;
60718;SDS011;46567;51.660;5.824;2022-10-03T17:08:02;10.6;;;4.1;;
60718;SDS011;46567;51.660;5.824;2022-10-03T17:13:04;5.7;;;2.5;;
60718;SDS011;46567;51.660;5.824;2022-10-03T17:18:10;6.6;;;2.6;;
60718;SDS011;46567;51.660;5.824;2022-10-03T17:23:11;6.1;;;3.1;;
60718;SDS011;46567;51.660;5.824;2022-10-03T17:28:02;8.7;;;3.4;;
60718;SDS011;46567;51.660;5.824;2022-10-03T17:33:05;7.0;;;3.0;;
60718;SDS011;46567;51.660;5.824;2022-10-03T17:38:35;7.8;;;3.4;;
60718;SDS011;46567;51.660;5.824;2022-10-03T17:43:03;5.1;;;2.5;;
60718;SDS011;46567;51.660;5.824;2022-10-03T17:48:03;8.0;;;3.2;;
60718;SDS011;46567;51.660;5.824;2022-10-03T17:53:02;8.0;;;3.2;;
60718;SDS011;46567;51.660;5.824;2022-10-03T17:58:04;8.7;;;3.6;;
60718;SDS011;46567;51.660;5.824;2022-10-03T18:03:06;8.7;;;3.5;;
60718;SDS011;46567;51.660;5.824;2022-10-03T18:08:05;8.5;;;4.5;;
60718;SDS011;46567;51.660;5.824;2022-10-03T18:13:05;7.1;;;4.0;;
60718;SDS011;46567;51.660;5.824;2022-10-03T18:18:28;7.6;;;3.7;;
60718;SDS011;46567;51.660;5.824;2022-10-03T18:23:10;9.1;;;4.0;;
60718;SDS011;46567;51.660;5.824;2022-10-03T18:28:12;10.4;;;5.2;;
60718;SDS011;46567;51.660;5.824;2022-10-03T18:38:10;8.8;;;4.7;;
60718;SDS011;46567;51.660;5.824;2022-10-03T18:43:02;6.4;;;4.3;;
60718;SDS011;46567;51.660;5.824;2022-10-03T18:48:08;9.6;;;4.4;;
60718;SDS011;46567;51.660;5.824;2022-10-03T18:53:15;6.6;;;4.3;;
60718;SDS011;46567;51.660;5.824;2022-10-03T18:58:16;8.3;;;5.6;;
60718;SDS011;46567;51.660;5.824;2022-10-03T19:03:11;9.1;;;5.1;;
60718;SDS011;46567;51.660;5.824;2022-10-03T19:08:10;8.6;;;5.0;;
60718;SDS011;46567;51.660;5.824;2022-10-03T19:13:05;6.2;;;4.3;;
60718;SDS011;46567;51.660;5.824;2022-10-03T19:18:18;9.4;;;5.1;;
60718;SDS011;46567;51.660;5.824;2022-10-03T19:23:12;11.2;;;5.7;;
60718;SDS011;46567;51.660;5.824;2022-10-03T19:28:04;9.1;;;5.0;;
60718;SDS011;46567;51.660;5.824;2022-10-03T19:33:06;7.3;;;4.1;;
60718;SDS011;46567;51.660;5.824;2022-10-03T19:38:03;7.6;;;3.9;;
60718;SDS011;46567;51.660;5.824;2022-10-03T19:43:26;10.8;;;4.4;;
60718;SDS011;46567;51.660;5.824;2022-10-03T19:48:09;9.0;;;4.2;;
60718;SDS011;46567;51.660;5.824;2022-10-03T19:53:06;5.8;;;3.6;;
60718;SDS011;46567;51.660;5.824;2022-10-03T19:58:03;6.4;;;3.8;;
60718;SDS011;46567;51.660;5.824;2022-10-03T20:03:10;6.6;;;4.3;;
60718;SDS011;46567;51.660;5.824;2022-10-03T20:08:28;8.2;;;4.8;;
60718;SDS011;46567;51.660;5.824;2022-10-03T20:13:02;6.2;;;4.3;;
60718;SDS011;46567;51.660;5.824;2022-10-03T20:18:02;5.5;;;4.1;;
60718;SDS011;46567;51.660;5.824;2022-10-03T20:23:03;6.8;;;3.7;;
60718;SDS011;46567;51.660;5.824;2022-10-03T20:28:03;5.8;;;3.8;;
60718;SDS011;46567;51.660;5.824;2022-10-03T20:33:03;8.4;;;4.3;;
60718;SDS011;46567;51.660;5.824;2022-10-03T20:38:31;7.2;;;3.7;;
60718;SDS011;46567;51.660;5.824;2022-10-03T20:43:09;7.1;;;4.1;;
60718;SDS011;46567;51.660;5.824;2022-10-03T20:48:03;5.1;;;3.9;;
60718;SDS011;46567;51.660;5.824;2022-10-03T20:53:16;7.4;;;3.8;;
60718;SDS011;46567;51.660;5.824;2022-10-03T20:58:13;7.2;;;3.8;;
60718;SDS011;46567;51.660;5.824;2022-10-03T21:03:06;4.7;;;3.9;;
60718;SDS011;46567;51.660;5.824;2022-10-03T21:08:03;7.5;;;4.2;;
60718;SDS011;46567;51.660;5.824;2022-10-03T21:13:04;7.2;;;3.9;;
60718;SDS011;46567;51.660;5.824;2022-10-03T21:18:03;7.3;;;3.5;;
60718;SDS011;46567;51.660;5.824;2022-10-03T21:23:03;7.2;;;3.5;;
60718;SDS011;46567;51.660;5.824;2022-10-03T21:28:03;6.4;;;3.6;;
60718;SDS011;46567;51.660;5.824;2022-10-03T21:33:23;6.6;;;3.8;;
60718;SDS011;46567;51.660;5.824;2022-10-03T21:38:03;4.6;;;3.8;;
60718;SDS011;46567;51.660;5.824;2022-10-03T21:43:15;5.3;;;4.1;;
60718;SDS011;46567;51.660;5.824;2022-10-03T21:48:13;6.4;;;3.8;;
60718;SDS011;46567;51.660;5.824;2022-10-03T21:53:16;5.9;;;3.9;;
60718;SDS011;46567;51.660;5.824;2022-10-03T21:59:12;9.3;;;4.4;;
60718;SDS011;46567;51.660;5.824;2022-10-03T22:03:54;6.3;;;4.0;;
60718;SDS011;46567;51.660;5.824;2022-10-03T22:08:11;5.5;;;4.2;;
60718;SDS011;46567;51.660;5.824;2022-10-03T22:13:08;6.0;;;4.1;;
60718;SDS011;46567;51.660;5.824;2022-10-03T22:18:04;5.8;;;4.2;;
60718;SDS011;46567;51.660;5.824;2022-10-03T22:23:09;6.8;;;3.9;;
60718;SDS011;46567;51.660;5.824;2022-10-03T22:28:06;7.7;;;4.5;;
60718;SDS011;46567;51.660;5.824;2022-10-03T22:33:25;5.9;;;3.8;;
60718;SDS011;46567;51.660;5.824;2022-10-03T22:38:03;10.8;;;4.1;;
60718;SDS011;46567;51.660;5.824;2022-10-03T22:43:03;6.3;;;4.1;;
60718;SDS011;46567;51.660;5.824;2022-10-03T22:48:08;7.1;;;4.1;;
60718;SDS011;46567;51.660;5.824;2022-10-03T22:53:03;6.4;;;3.8;;
60718;SDS011;46567;51.660;5.824;2022-10-03T22:58:03;5.2;;;3.4;;
60718;SDS011;46567;51.660;5.824;2022-10-03T23:03:05;6.6;;;3.8;;
60718;SDS011;46567;51.660;5.824;2022-10-03T23:08:51;6.1;;;3.5;;
60718;SDS011;46567;51.660;5.824;2022-10-03T23:13:05;6.5;;;3.8;;
60718;SDS011;46567;51.660;5.824;2022-10-03T23:23:03;7.3;;;4.2;;
60718;SDS011;46567;51.660;5.824;2022-10-03T23:28:39;5.5;;;4.5;;
60718;SDS011;46567;51.660;5.824;2022-10-03T23:33:02;8.4;;;4.4;;
60718;SDS011;46567;51.660;5.824;2022-10-03T23:38:07;9.0;;;4.8;;
60718;SDS011;46567;51.660;5.824;2022-10-03T23:43:05;9.3;;;4.7;;
60718;SDS011;46567;51.660;5.824;2022-10-03T23:48:04;11.2;;;5.2;;
60718;SDS011;46567;51.660;5.824;2022-10-03T23:53:03;9.6;;;5.3;;
60718;SDS011;46567;51.660;5.824;2022-10-03T23:58:06;8.2;;;5.3;;
